sensor_id;sensor_type;location;lat;lon;timestamp;pressure;altitude;pressure_sealevel;temperature;humidity
59417;BME280;45222;52.458;20.914;2023-07-20T00:02:08;99989.48;;;15.28;72.26
59417;BME280;45222;52.458;20.914;2023-07-20T00:05:54;99987.77;;;15.29;72.27
59417;BME280;45222;52.458;20.914;2023-07-20T00:09:39;99992.11;;;15.32;72.36
59417;BME280;45222;52.458;20.914;2023-07-20T00:13:24;99988.27;;;15.32;72.59
59417;BME280;45222;52.458;20.914;2023-07-20T00:17:08;99976.73;;;15.28;72.71
59417;BME280;45222;52.458;20.914;2023-07-20T00:20:53;99975.08;;;15.24;72.82
59417;BME280;45222;52.458;20.914;2023-07-20T00:24:38;99975.71;;;15.23;72.89
59417;BME280;45222;52.458;20.914;2023-07-20T00:28:23;99969.39;;;15.28;72.80
59417;BME280;45222;52.458;20.914;2023-07-20T00:32:09;99965.52;;;15.35;72.65
59417;BME280;45222;52.458;20.914;2023-07-20T00:35:54;99956.21;;;15.44;72.71
59417;BME280;45222;52.458;20.914;2023-07-20T00:39:39;99953.88;;;15.51;72.85
59417;BME280;45222;52.458;20.914;2023-07-20T00:43:24;99959.05;;;15.57;73.06
59417;BME280;45222;52.458;20.914;2023-07-20T00:47:10;99964.02;;;15.52;73.01
59417;BME280;45222;52.458;20.914;2023-07-20T00:50:55;99956.20;;;15.47;73.04
59417;BME280;45222;52.458;20.914;2023-07-20T00:54:40;99955.95;;;15.43;72.99
59417;BME280;45222;52.458;20.914;2023-07-20T00:58:26;99962.18;;;15.46;73.13
59417;BME280;45222;52.458;20.914;2023-07-20T01:02:12;99959.00;;;15.52;73.17
59417;BME280;45222;52.458;20.914;2023-07-20T01:06:09;99949.33;;;15.60;73.20
59417;BME280;45222;52.458;20.914;2023-07-20T01:10:05;99934.23;;;15.62;73.04
59417;BME280;45222;52.458;20.914;2023-07-20T01:13:54;99938.45;;;15.64;72.47
59417;BME280;45222;52.458;20.914;2023-07-20T01:17:39;99941.52;;;15.63;72.35
59417;BME280;45222;52.458;20.914;2023-07-20T01:21:31;99951.88;;;15.68;72.55
59417;BME280;45222;52.458;20.914;2023-07-20T01:25:37;99960.00;;;15.77;72.67
59417;BME280;45222;52.458;20.914;2023-07-20T01:29:47;99951.58;;;15.87;73.26
59417;BME280;45222;52.458;20.914;2023-07-20T01:33:40;99959.38;;;15.95;74.26
59417;BME280;45222;52.458;20.914;2023-07-20T01:37:27;99959.87;;;15.98;74.47
59417;BME280;45222;52.458;20.914;2023-07-20T01:41:15;99945.79;;;15.97;74.88
59417;BME280;45222;52.458;20.914;2023-07-20T01:45:00;99944.69;;;15.97;75.44
59417;BME280;45222;52.458;20.914;2023-07-20T01:48:45;99941.67;;;15.92;76.47
59417;BME280;45222;52.458;20.914;2023-07-20T01:52:30;99944.42;;;15.81;76.62
59417;BME280;45222;52.458;20.914;2023-07-20T01:56:15;99960.40;;;15.77;76.75
59417;BME280;45222;52.458;20.914;2023-07-20T02:00:01;99955.67;;;15.77;76.94
59417;BME280;45222;52.458;20.914;2023-07-20T02:03:46;99949.40;;;15.80;77.10
59417;BME280;45222;52.458;20.914;2023-07-20T02:07:31;99956.20;;;15.82;77.26
59417;BME280;45222;52.458;20.914;2023-07-20T02:11:16;99965.97;;;15.81;77.69
59417;BME280;45222;52.458;20.914;2023-07-20T02:15:03;99958.23;;;15.79;77.76
59417;BME280;45222;52.458;20.914;2023-07-20T02:18:49;99951.35;;;15.80;77.87
59417;BME280;45222;52.458;20.914;2023-07-20T02:22:34;99947.55;;;15.83;78.22
59417;BME280;45222;52.458;20.914;2023-07-20T02:26:19;99948.23;;;15.90;78.26
59417;BME280;45222;52.458;20.914;2023-07-20T02:30:06;99949.77;;;15.94;78.21
59417;BME280;45222;52.458;20.914;2023-07-20T02:33:51;99943.80;;;15.87;78.20
59417;BME280;45222;52.458;20.914;2023-07-20T02:37:36;99940.66;;;15.79;78.36
59417;BME280;45222;52.458;20.914;2023-07-20T02:41:21;99934.80;;;15.76;78.57
59417;BME280;45222;52.458;20.914;2023-07-20T02:45:08;99937.41;;;15.75;78.90
59417;BME280;45222;52.458;20.914;2023-07-20T02:48:53;99940.40;;;15.68;79.07
59417;BME280;45222;52.458;20.914;2023-07-20T02:52:39;99948.56;;;15.48;79.76
59417;BME280;45222;52.458;20.914;2023-07-20T02:56:24;99957.67;;;15.29;80.25
59417;BME280;45222;52.458;20.914;2023-07-20T03:00:11;99955.77;;;15.24;79.96
59417;BME280;45222;52.458;20.914;2023-07-20T03:03:59;99956.52;;;15.30;79.88
59417;BME280;45222;52.458;20.914;2023-07-20T03:07:44;99954.45;;;15.41;80.19
59417;BME280;45222;52.458;20.914;2023-07-20T03:11:30;99945.55;;;15.52;80.28
59417;BME280;45222;52.458;20.914;2023-07-20T03:15:15;99942.77;;;15.61;80.31
59417;BME280;45222;52.458;20.914;2023-07-20T03:19:00;99940.24;;;15.68;80.36
59417;BME280;45222;52.458;20.914;2023-07-20T03:22:45;99939.38;;;15.72;80.18
59417;BME280;45222;52.458;20.914;2023-07-20T03:26:30;99942.39;;;15.77;79.99
59417;BME280;45222;52.458;20.914;2023-07-20T03:30:16;99954.23;;;15.77;79.92
59417;BME280;45222;52.458;20.914;2023-07-20T03:34:01;99957.09;;;15.75;80.06
59417;BME280;45222;52.458;20.914;2023-07-20T03:37:46;99956.11;;;15.78;79.82
59417;BME280;45222;52.458;20.914;2023-07-20T03:41:31;99954.47;;;15.84;79.45
59417;BME280;45222;52.458;20.914;2023-07-20T03:45:16;99963.04;;;15.89;79.40
59417;BME280;45222;52.458;20.914;2023-07-20T03:49:01;99981.04;;;15.93;79.41
59417;BME280;45222;52.458;20.914;2023-07-20T03:52:48;99989.15;;;15.98;79.36
59417;BME280;45222;52.458;20.914;2023-07-20T03:56:32;100001.59;;;15.99;79.45
59417;BME280;45222;52.458;20.914;2023-07-20T04:00:20;100010.08;;;16.03;79.29
59417;BME280;45222;52.458;20.914;2023-07-20T04:04:07;100018.40;;;16.04;78.81
59417;BME280;45222;52.458;20.914;2023-07-20T04:07:56;100020.20;;;16.08;78.94
59417;BME280;45222;52.458;20.914;2023-07-20T04:11:41;100025.84;;;16.15;78.82
59417;BME280;45222;52.458;20.914;2023-07-20T04:15:26;100028.62;;;16.16;78.80
59417;BME280;45222;52.458;20.914;2023-07-20T04:19:11;100036.34;;;16.16;78.69
59417;BME280;45222;52.458;20.914;2023-07-20T04:22:58;100045.91;;;16.13;78.54
59417;BME280;45222;52.458;20.914;2023-07-20T04:26:44;100038.55;;;16.10;78.70
59417;BME280;45222;52.458;20.914;2023-07-20T04:30:30;100038.77;;;16.13;78.96
59417;BME280;45222;52.458;20.914;2023-07-20T04:34:15;100043.12;;;16.12;78.91
59417;BME280;45222;52.458;20.914;2023-07-20T04:38:00;100054.98;;;16.09;79.18
59417;BME280;45222;52.458;20.914;2023-07-20T04:41:45;100062.20;;;16.06;79.35
59417;BME280;45222;52.458;20.914;2023-07-20T04:45:30;100072.84;;;16.00;79.91
59417;BME280;45222;52.458;20.914;2023-07-20T04:49:15;100087.34;;;15.93;80.35
59417;BME280;45222;52.458;20.914;2023-07-20T04:53:00;100087.18;;;15.88;80.37
59417;BME280;45222;52.458;20.914;2023-07-20T04:56:46;100084.23;;;15.85;80.07
59417;BME280;45222;52.458;20.914;2023-07-20T05:00:33;100090.27;;;15.88;79.83
59417;BME280;45222;52.458;20.914;2023-07-20T05:04:18;100094.87;;;15.88;79.96
59417;BME280;45222;52.458;20.914;2023-07-20T05:08:04;100092.11;;;15.92;80.10
59417;BME280;45222;52.458;20.914;2023-07-20T05:11:49;100087.92;;;15.95;79.85
59417;BME280;45222;52.458;20.914;2023-07-20T05:15:35;100084.62;;;15.97;79.67
59417;BME280;45222;52.458;20.914;2023-07-20T05:19:20;100081.22;;;15.99;79.28
59417;BME280;45222;52.458;20.914;2023-07-20T05:23:05;100084.09;;;16.04;79.42
59417;BME280;45222;52.458;20.914;2023-07-20T05:26:50;100081.80;;;16.10;79.57
59417;BME280;45222;52.458;20.914;2023-07-20T05:30:35;100078.91;;;16.15;79.54
59417;BME280;45222;52.458;20.914;2023-07-20T05:34:20;100082.05;;;16.16;79.30
59417;BME280;45222;52.458;20.914;2023-07-20T05:38:06;100081.33;;;16.16;78.94
59417;BME280;45222;52.458;20.914;2023-07-20T05:41:51;100084.52;;;16.19;78.89
59417;BME280;45222;52.458;20.914;2023-07-20T05:45:36;100082.80;;;16.22;78.74
59417;BME280;45222;52.458;20.914;2023-07-20T05:49:21;100085.29;;;16.28;78.71
59417;BME280;45222;52.458;20.914;2023-07-20T05:53:06;100082.54;;;16.29;78.45
59417;BME280;45222;52.458;20.914;2023-07-20T05:56:51;100085.23;;;16.24;78.37
59417;BME280;45222;52.458;20.914;2023-07-20T06:00:37;100089.36;;;16.19;78.31
59417;BME280;45222;52.458;20.914;2023-07-20T06:04:22;100085.77;;;16.19;78.62
59417;BME280;45222;52.458;20.914;2023-07-20T06:08:07;100085.15;;;16.20;78.63
59417;BME280;45222;52.458;20.914;2023-07-20T06:11:52;100083.27;;;16.21;78.58
59417;BME280;45222;52.458;20.914;2023-07-20T06:15:37;100081.05;;;16.25;78.77
59417;BME280;45222;52.458;20.914;2023-07-20T06:19:23;100083.80;;;16.17;78.82
59417;BME280;45222;52.458;20.914;2023-07-20T06:23:08;100083.04;;;16.15;78.98
59417;BME280;45222;52.458;20.914;2023-07-20T06:26:53;100083.23;;;16.17;79.38
59417;BME280;45222;52.458;20.914;2023-07-20T06:30:38;100084.38;;;16.21;79.43
59417;BME280;45222;52.458;20.914;2023-07-20T06:34:24;100082.66;;;16.22;79.61
59417;BME280;45222;52.458;20.914;2023-07-20T06:38:09;100086.02;;;16.20;79.49
59417;BME280;45222;52.458;20.914;2023-07-20T06:41:54;100083.31;;;16.18;79.55
59417;BME280;45222;52.458;20.914;2023-07-20T06:45:39;100081.13;;;16.24;79.57
59417;BME280;45222;52.458;20.914;2023-07-20T06:49:28;100077.30;;;16.32;79.62
59417;BME280;45222;52.458;20.914;2023-07-20T06:53:13;100070.40;;;16.35;79.58
59417;BME280;45222;52.458;20.914;2023-07-20T06:56:58;100070.81;;;16.32;79.95
59417;BME280;45222;52.458;20.914;2023-07-20T07:00:44;100066.38;;;16.31;79.91
59417;BME280;45222;52.458;20.914;2023-07-20T07:04:29;100068.04;;;16.28;79.86
59417;BME280;45222;52.458;20.914;2023-07-20T07:08:14;100065.73;;;16.21;80.24
59417;BME280;45222;52.458;20.914;2023-07-20T07:11:59;100068.75;;;16.19;80.61
59417;BME280;45222;52.458;20.914;2023-07-20T07:15:45;100075.22;;;16.21;80.82
59417;BME280;45222;52.458;20.914;2023-07-20T07:19:30;100081.43;;;16.20;81.40
59417;BME280;45222;52.458;20.914;2023-07-20T07:23:15;100089.86;;;16.15;81.68
59417;BME280;45222;52.458;20.914;2023-07-20T07:27:00;100092.13;;;16.04;81.16
59417;BME280;45222;52.458;20.914;2023-07-20T07:30:46;100082.61;;;15.94;81.27
59417;BME280;45222;52.458;20.914;2023-07-20T07:34:31;100081.41;;;15.91;81.37
59417;BME280;45222;52.458;20.914;2023-07-20T07:38:19;100090.12;;;15.90;80.90
59417;BME280;45222;52.458;20.914;2023-07-20T07:42:05;100087.31;;;15.91;81.07
59417;BME280;45222;52.458;20.914;2023-07-20T07:45:53;100088.88;;;16.00;81.37
59417;BME280;45222;52.458;20.914;2023-07-20T07:49:38;100097.46;;;16.09;81.03
59417;BME280;45222;52.458;20.914;2023-07-20T07:53:23;100100.18;;;16.06;81.12
59417;BME280;45222;52.458;20.914;2023-07-20T07:57:10;100104.17;;;16.01;81.04
59417;BME280;45222;52.458;20.914;2023-07-20T08:00:55;100105.01;;;16.02;81.12
59417;BME280;45222;52.458;20.914;2023-07-20T08:04:40;100113.04;;;16.07;81.11
59417;BME280;45222;52.458;20.914;2023-07-20T08:08:26;100120.10;;;16.16;80.40
59417;BME280;45222;52.458;20.914;2023-07-20T08:12:11;100122.59;;;16.23;80.43
59417;BME280;45222;52.458;20.914;2023-07-20T08:15:56;100126.84;;;16.38;80.38
59417;BME280;45222;52.458;20.914;2023-07-20T08:19:41;100131.98;;;16.53;79.73
59417;BME280;45222;52.458;20.914;2023-07-20T08:23:26;100130.58;;;16.62;79.42
59417;BME280;45222;52.458;20.914;2023-07-20T08:27:12;100127.71;;;16.64;78.51
59417;BME280;45222;52.458;20.914;2023-07-20T08:30:57;100127.98;;;16.70;78.38
59417;BME280;45222;52.458;20.914;2023-07-20T08:34:42;100133.99;;;16.83;78.38
59417;BME280;45222;52.458;20.914;2023-07-20T08:38:27;100133.10;;;16.92;78.23
59417;BME280;45222;52.458;20.914;2023-07-20T08:42:13;100137.38;;;17.06;78.30
59417;BME280;45222;52.458;20.914;2023-07-20T08:45:59;100139.37;;;17.20;77.44
59417;BME280;45222;52.458;20.914;2023-07-20T08:49:48;100139.38;;;17.33;77.00
59417;BME280;45222;52.458;20.914;2023-07-20T08:53:33;100146.09;;;17.39;75.89
59417;BME280;45222;52.458;20.914;2023-07-20T08:57:19;100142.66;;;17.39;76.06
59417;BME280;45222;52.458;20.914;2023-07-20T09:01:05;100144.98;;;17.49;76.64
59417;BME280;45222;52.458;20.914;2023-07-20T09:04:50;100147.64;;;17.58;76.43
59417;BME280;45222;52.458;20.914;2023-07-20T09:08:38;100152.39;;;17.64;75.84
59417;BME280;45222;52.458;20.914;2023-07-20T09:12:24;100150.16;;;17.60;75.25
59417;BME280;45222;52.458;20.914;2023-07-20T09:16:09;100147.45;;;17.58;74.81
59417;BME280;45222;52.458;20.914;2023-07-20T09:19:58;100146.05;;;17.58;75.06
59417;BME280;45222;52.458;20.914;2023-07-20T09:23:43;100148.81;;;17.64;75.35
59417;BME280;45222;52.458;20.914;2023-07-20T09:27:35;100144.91;;;17.67;75.76
59417;BME280;45222;52.458;20.914;2023-07-20T09:31:22;100144.36;;;17.74;75.82
59417;BME280;45222;52.458;20.914;2023-07-20T09:35:13;100148.61;;;17.81;75.47
59417;BME280;45222;52.458;20.914;2023-07-20T09:39:00;100147.63;;;17.87;75.14
59417;BME280;45222;52.458;20.914;2023-07-20T09:42:45;100149.94;;;17.98;74.81
59417;BME280;45222;52.458;20.914;2023-07-20T09:46:43;100147.80;;;18.20;75.42
59417;BME280;45222;52.458;20.914;2023-07-20T09:50:28;100145.69;;;18.43;73.97
59417;BME280;45222;52.458;20.914;2023-07-20T09:54:13;100143.05;;;18.61;73.71
59417;BME280;45222;52.458;20.914;2023-07-20T09:58:00;100138.74;;;18.76;73.34
59417;BME280;45222;52.458;20.914;2023-07-20T10:01:46;100134.12;;;18.79;72.12
59417;BME280;45222;52.458;20.914;2023-07-20T10:05:34;100140.85;;;18.76;71.53
59417;BME280;45222;52.458;20.914;2023-07-20T10:09:20;100142.77;;;18.73;71.36
59417;BME280;45222;52.458;20.914;2023-07-20T10:13:08;100143.67;;;18.73;71.79
59417;BME280;45222;52.458;20.914;2023-07-20T10:16:58;100142.67;;;18.72;72.27
59417;BME280;45222;52.458;20.914;2023-07-20T10:20:47;100145.87;;;18.72;71.66
59417;BME280;45222;52.458;20.914;2023-07-20T10:24:33;100149.89;;;18.74;71.61
59417;BME280;45222;52.458;20.914;2023-07-20T10:28:19;100155.92;;;18.75;71.98
59417;BME280;45222;52.458;20.914;2023-07-20T10:32:07;100153.02;;;18.82;71.94
59417;BME280;45222;52.458;20.914;2023-07-20T10:35:54;100144.25;;;19.04;71.47
59417;BME280;45222;52.458;20.914;2023-07-20T10:39:40;100140.14;;;19.39;70.21
59417;BME280;45222;52.458;20.914;2023-07-20T10:43:26;100137.05;;;19.65;68.50
59417;BME280;45222;52.458;20.914;2023-07-20T10:47:12;100139.86;;;19.76;67.97
59417;BME280;45222;52.458;20.914;2023-07-20T10:51:12;100144.08;;;19.75;67.60
59417;BME280;45222;52.458;20.914;2023-07-20T10:55:11;100133.61;;;19.81;68.19
59417;BME280;45222;52.458;20.914;2023-07-20T10:58:59;100130.50;;;20.10;67.54
59417;BME280;45222;52.458;20.914;2023-07-20T11:02:46;100130.81;;;20.18;66.24
59417;BME280;45222;52.458;20.914;2023-07-20T11:06:32;100120.27;;;20.19;65.79
59417;BME280;45222;52.458;20.914;2023-07-20T11:10:18;100121.61;;;20.30;66.07
59417;BME280;45222;52.458;20.914;2023-07-20T11:14:05;100119.30;;;20.58;65.57
59417;BME280;45222;52.458;20.914;2023-07-20T11:17:50;100119.04;;;20.74;64.46
59417;BME280;45222;52.458;20.914;2023-07-20T11:21:40;100113.45;;;20.66;64.00
59417;BME280;45222;52.458;20.914;2023-07-20T11:25:25;100113.77;;;20.61;63.76
59417;BME280;45222;52.458;20.914;2023-07-20T11:29:21;100113.21;;;20.88;64.35
59417;BME280;45222;52.458;20.914;2023-07-20T11:33:09;100103.89;;;21.36;62.64
59417;BME280;45222;52.458;20.914;2023-07-20T11:36:54;100101.30;;;21.78;62.26
59417;BME280;45222;52.458;20.914;2023-07-20T11:40:44;100102.36;;;22.25;60.79
59417;BME280;45222;52.458;20.914;2023-07-20T11:44:29;100104.88;;;22.45;59.48
59417;BME280;45222;52.458;20.914;2023-07-20T11:48:16;100100.94;;;22.46;58.25
59417;BME280;45222;52.458;20.914;2023-07-20T11:52:02;100095.66;;;22.55;58.55
59417;BME280;45222;52.458;20.914;2023-07-20T11:55:48;100097.05;;;22.71;56.70
59417;BME280;45222;52.458;20.914;2023-07-20T11:59:33;100100.39;;;22.53;56.49
59417;BME280;45222;52.458;20.914;2023-07-20T12:03:18;100098.91;;;22.23;56.77
59417;BME280;45222;52.458;20.914;2023-07-20T12:07:04;100099.20;;;21.91;57.65
59417;BME280;45222;52.458;20.914;2023-07-20T12:10:52;100093.98;;;21.75;58.43
59417;BME280;45222;52.458;20.914;2023-07-20T12:14:37;100089.11;;;21.54;59.04
59417;BME280;45222;52.458;20.914;2023-07-20T12:18:34;100083.41;;;21.31;60.01
59417;BME280;45222;52.458;20.914;2023-07-20T12:22:19;100085.20;;;21.13;60.69
59417;BME280;45222;52.458;20.914;2023-07-20T12:26:07;100083.93;;;21.04;61.11
59417;BME280;45222;52.458;20.914;2023-07-20T12:29:53;100083.79;;;20.90;60.38
59417;BME280;45222;52.458;20.914;2023-07-20T12:33:39;100083.97;;;20.74;61.08
59417;BME280;45222;52.458;20.914;2023-07-20T12:37:25;100080.80;;;20.62;61.36
59417;BME280;45222;52.458;20.914;2023-07-20T12:41:11;100091.96;;;20.55;62.14
59417;BME280;45222;52.458;20.914;2023-07-20T12:44:57;100093.40;;;20.54;62.58
59417;BME280;45222;52.458;20.914;2023-07-20T12:48:43;100078.19;;;20.54;62.26
59417;BME280;45222;52.458;20.914;2023-07-20T12:52:28;100078.73;;;20.54;62.25
59417;BME280;45222;52.458;20.914;2023-07-20T12:56:13;100075.40;;;20.54;62.04
59417;BME280;45222;52.458;20.914;2023-07-20T12:59:58;100065.57;;;20.52;62.16
59417;BME280;45222;52.458;20.914;2023-07-20T13:03:43;100059.82;;;20.72;62.13
59417;BME280;45222;52.458;20.914;2023-07-20T13:07:31;100045.81;;;21.05;61.83
59417;BME280;45222;52.458;20.914;2023-07-20T13:11:17;100032.13;;;21.51;60.46
59417;BME280;45222;52.458;20.914;2023-07-20T13:15:03;100026.66;;;22.05;57.65
59417;BME280;45222;52.458;20.914;2023-07-20T13:18:50;100028.62;;;22.23;56.67
59417;BME280;45222;52.458;20.914;2023-07-20T13:22:35;100023.17;;;22.44;56.48
59417;BME280;45222;52.458;20.914;2023-07-20T13:26:20;100023.06;;;22.63;54.41
59417;BME280;45222;52.458;20.914;2023-07-20T13:30:07;100025.84;;;22.70;54.82
59417;BME280;45222;52.458;20.914;2023-07-20T13:33:54;100038.77;;;22.67;54.79
59417;BME280;45222;52.458;20.914;2023-07-20T13:37:40;100044.48;;;22.61;54.54
59417;BME280;45222;52.458;20.914;2023-07-20T13:41:26;100049.16;;;22.60;55.09
59417;BME280;45222;52.458;20.914;2023-07-20T13:45:11;100062.34;;;22.57;55.20
59417;BME280;45222;52.458;20.914;2023-07-20T13:48:56;100079.42;;;22.56;55.08
59417;BME280;45222;52.458;20.914;2023-07-20T13:52:41;100081.23;;;22.44;55.26
59417;BME280;45222;52.458;20.914;2023-07-20T13:56:27;100085.32;;;22.32;55.32
59417;BME280;45222;52.458;20.914;2023-07-20T14:00:14;100091.25;;;22.20;55.66
59417;BME280;45222;52.458;20.914;2023-07-20T14:03:59;100096.95;;;22.07;56.20
59417;BME280;45222;52.458;20.914;2023-07-20T14:07:45;100103.05;;;21.83;56.55
59417;BME280;45222;52.458;20.914;2023-07-20T14:11:30;100120.28;;;21.42;57.54
59417;BME280;45222;52.458;20.914;2023-07-20T14:15:15;100130.10;;;20.80;53.52
59417;BME280;45222;52.458;20.914;2023-07-20T14:19:00;100116.90;;;20.18;52.51
59417;BME280;45222;52.458;20.914;2023-07-20T14:22:45;100120.02;;;19.66;52.43
59417;BME280;45222;52.458;20.914;2023-07-20T14:26:32;100124.48;;;19.20;52.62
59417;BME280;45222;52.458;20.914;2023-07-20T14:30:17;100118.58;;;18.82;52.91
59417;BME280;45222;52.458;20.914;2023-07-20T14:34:02;100111.30;;;18.54;53.58
59417;BME280;45222;52.458;20.914;2023-07-20T14:37:47;100106.19;;;18.35;54.22
59417;BME280;45222;52.458;20.914;2023-07-20T14:41:32;100089.59;;;18.27;54.57
59417;BME280;45222;52.458;20.914;2023-07-20T14:45:17;100093.67;;;18.17;54.91
59417;BME280;45222;52.458;20.914;2023-07-20T14:49:03;100088.60;;;17.98;56.41
59417;BME280;45222;52.458;20.914;2023-07-20T14:52:48;100075.23;;;17.77;57.16
59417;BME280;45222;52.458;20.914;2023-07-20T14:56:33;100067.75;;;17.61;58.22
59417;BME280;45222;52.458;20.914;2023-07-20T15:00:19;100067.44;;;17.54;58.27
59417;BME280;45222;52.458;20.914;2023-07-20T15:04:05;100061.27;;;17.48;58.68
59417;BME280;45222;52.458;20.914;2023-07-20T15:07:50;100059.21;;;17.42;58.68
59417;BME280;45222;52.458;20.914;2023-07-20T15:11:36;100077.61;;;17.37;59.00
59417;BME280;45222;52.458;20.914;2023-07-20T15:15:22;100082.15;;;17.32;59.05
59417;BME280;45222;52.458;20.914;2023-07-20T15:19:09;100076.45;;;17.27;59.40
59417;BME280;45222;52.458;20.914;2023-07-20T15:22:55;100071.92;;;17.25;59.81
59417;BME280;45222;52.458;20.914;2023-07-20T15:26:41;100068.42;;;17.24;60.03
59417;BME280;45222;52.458;20.914;2023-07-20T15:30:30;100081.80;;;17.23;59.68
59417;BME280;45222;52.458;20.914;2023-07-20T15:34:15;100081.52;;;17.20;59.85
59417;BME280;45222;52.458;20.914;2023-07-20T15:38:00;100087.71;;;17.19;60.08
59417;BME280;45222;52.458;20.914;2023-07-20T15:41:47;100116.36;;;17.11;63.13
59417;BME280;45222;52.458;20.914;2023-07-20T15:45:32;100161.14;;;16.75;67.10
59417;BME280;45222;52.458;20.914;2023-07-20T15:49:17;100171.86;;;16.29;68.56
59417;BME280;45222;52.458;20.914;2023-07-20T15:53:03;100177.10;;;15.82;71.71
59417;BME280;45222;52.458;20.914;2023-07-20T15:56:49;100178.94;;;15.44;73.65
59417;BME280;45222;52.458;20.914;2023-07-20T16:00:34;100192.91;;;15.27;74.71
59417;BME280;45222;52.458;20.914;2023-07-20T16:04:19;100194.81;;;15.10;76.98
59417;BME280;45222;52.458;20.914;2023-07-20T16:08:04;100191.75;;;14.94;77.70
59417;BME280;45222;52.458;20.914;2023-07-20T16:11:50;100184.44;;;14.86;77.96
59417;BME280;45222;52.458;20.914;2023-07-20T16:15:35;100191.33;;;14.88;77.34
59417;BME280;45222;52.458;20.914;2023-07-20T16:19:20;100188.40;;;14.91;77.73
59417;BME280;45222;52.458;20.914;2023-07-20T16:23:05;100191.27;;;14.96;78.57
59417;BME280;45222;52.458;20.914;2023-07-20T16:26:51;100194.73;;;15.03;78.42
59417;BME280;45222;52.458;20.914;2023-07-20T16:30:36;100184.20;;;15.10;78.81
59417;BME280;45222;52.458;20.914;2023-07-20T16:34:21;100178.56;;;15.24;78.88
59417;BME280;45222;52.458;20.914;2023-07-20T16:38:07;100176.46;;;15.42;79.30
59417;BME280;45222;52.458;20.914;2023-07-20T16:41:52;100162.17;;;15.63;79.26
59417;BME280;45222;52.458;20.914;2023-07-20T16:45:37;100143.59;;;15.87;78.95
59417;BME280;45222;52.458;20.914;2023-07-20T16:49:22;100130.44;;;16.07;78.80
59417;BME280;45222;52.458;20.914;2023-07-20T16:53:09;100133.44;;;16.29;79.06
59417;BME280;45222;52.458;20.914;2023-07-20T16:56:54;100139.50;;;16.44;78.12
59417;BME280;45222;52.458;20.914;2023-07-20T17:00:39;100145.20;;;16.56;77.53
59417;BME280;45222;52.458;20.914;2023-07-20T17:04:24;100152.48;;;16.65;77.61
59417;BME280;45222;52.458;20.914;2023-07-20T17:08:10;100150.94;;;16.66;77.88
59417;BME280;45222;52.458;20.914;2023-07-20T17:11:55;100153.58;;;16.67;77.36
59417;BME280;45222;52.458;20.914;2023-07-20T17:15:41;100159.80;;;16.68;77.23
59417;BME280;45222;52.458;20.914;2023-07-20T17:19:26;100157.14;;;16.67;77.15
59417;BME280;45222;52.458;20.914;2023-07-20T17:23:11;100161.95;;;16.68;77.24
59417;BME280;45222;52.458;20.914;2023-07-20T17:26:56;100165.42;;;16.67;77.65
59417;BME280;45222;52.458;20.914;2023-07-20T17:30:42;100168.20;;;16.66;77.62
59417;BME280;45222;52.458;20.914;2023-07-20T17:34:27;100159.54;;;16.61;77.29
59417;BME280;45222;52.458;20.914;2023-07-20T17:38:12;100158.36;;;16.55;77.28
59417;BME280;45222;52.458;20.914;2023-07-20T17:41:57;100153.72;;;16.55;77.49
59417;BME280;45222;52.458;20.914;2023-07-20T17:45:42;100149.27;;;16.59;77.50
59417;BME280;45222;52.458;20.914;2023-07-20T17:49:27;100149.77;;;16.65;77.75
59417;BME280;45222;52.458;20.914;2023-07-20T17:53:12;100148.48;;;16.65;77.76
59417;BME280;45222;52.458;20.914;2023-07-20T17:56:58;100159.51;;;16.64;77.52
59417;BME280;45222;52.458;20.914;2023-07-20T18:00:43;100171.45;;;16.60;77.44
59417;BME280;45222;52.458;20.914;2023-07-20T18:04:28;100176.54;;;16.48;77.55
59417;BME280;45222;52.458;20.914;2023-07-20T18:08:13;100174.16;;;16.34;78.15
59417;BME280;45222;52.458;20.914;2023-07-20T18:11:58;100178.80;;;16.28;78.42
59417;BME280;45222;52.458;20.914;2023-07-20T18:15:44;100181.16;;;16.23;78.88
59417;BME280;45222;52.458;20.914;2023-07-20T18:19:29;100186.86;;;16.13;79.00
59417;BME280;45222;52.458;20.914;2023-07-20T18:23:14;100193.47;;;16.02;79.35
59417;BME280;45222;52.458;20.914;2023-07-20T18:26:59;100189.61;;;15.91;79.46
59417;BME280;45222;52.458;20.914;2023-07-20T18:30:45;100196.13;;;15.79;79.63
59417;BME280;45222;52.458;20.914;2023-07-20T18:34:30;100196.60;;;15.71;80.27
59417;BME280;45222;52.458;20.914;2023-07-20T18:38:15;100199.29;;;15.65;80.41
59417;BME280;45222;52.458;20.914;2023-07-20T18:42:01;100196.85;;;15.62;80.69
59417;BME280;45222;52.458;20.914;2023-07-20T18:45:47;100196.82;;;15.62;80.80
59417;BME280;45222;52.458;20.914;2023-07-20T18:49:32;100189.79;;;15.65;80.35
59417;BME280;45222;52.458;20.914;2023-07-20T18:53:17;100194.11;;;15.65;79.98
59417;BME280;45222;52.458;20.914;2023-07-20T18:57:03;100203.63;;;15.63;79.55
59417;BME280;45222;52.458;20.914;2023-07-20T19:00:49;100214.27;;;15.54;79.93
59417;BME280;45222;52.458;20.914;2023-07-20T19:04:34;100215.52;;;15.44;80.33
59417;BME280;45222;52.458;20.914;2023-07-20T19:08:20;100215.34;;;15.39;80.71
59417;BME280;45222;52.458;20.914;2023-07-20T19:12:09;100215.45;;;15.40;80.92
59417;BME280;45222;52.458;20.914;2023-07-20T19:15:55;100221.91;;;15.37;80.92
59417;BME280;45222;52.458;20.914;2023-07-20T19:19:43;100226.98;;;15.29;80.74
59417;BME280;45222;52.458;20.914;2023-07-20T19:23:30;100229.75;;;15.17;80.95
59417;BME280;45222;52.458;20.914;2023-07-20T19:27:17;100239.44;;;15.07;81.29
59417;BME280;45222;52.458;20.914;2023-07-20T19:31:03;100238.20;;;14.98;81.46